createdAt,value
2022-08-12T00:04:37.626Z,100571.00
2022-08-12T00:10:59.123Z,100563.00
2022-08-12T00:17:31.554Z,100561.00
2022-08-12T00:23:52.446Z,100567.00
2022-08-12T00:30:13.549Z,100570.00
2022-08-12T00:36:34.803Z,100566.00
2022-08-12T00:42:41.795Z,100576.00
2022-08-12T00:48:45.242Z,100579.00
2022-08-12T00:54:52.794Z,100575.00
2022-08-12T01:01:04.945Z,100582.00
2022-08-12T01:07:44.720Z,100577.00
2022-08-12T01:13:49.186Z,100570.00
2022-08-12T01:19:54.637Z,100574.00
2022-08-12T01:26:00.988Z,100561.00
2022-08-12T01:32:10.715Z,100560.00
2022-08-12T01:38:16.554Z,100548.00
2022-08-12T01:44:20.534Z,100553.00
2022-08-12T01:52:15.045Z,100550.00
2022-08-12T01:58:11.947Z,100546.00
2022-08-12T02:04:39.339Z,100547.00
2022-08-12T02:11:17.733Z,100546.00
2022-08-12T02:17:55.235Z,100535.00
2022-08-12T02:23:58.591Z,100542.00
2022-08-12T02:30:01.140Z,100543.00
2022-08-12T02:36:04.674Z,100527.00
2022-08-12T02:42:10.862Z,100518.00
2022-08-12T02:48:19.373Z,100530.00
2022-08-12T02:54:23.510Z,100525.00
2022-08-12T03:00:26.282Z,100520.00
2022-08-12T03:06:38.418Z,100523.00
2022-08-12T03:12:49.272Z,100533.00
2022-08-12T03:18:54.702Z,100524.00
2022-08-12T03:25:02.253Z,100523.00
2022-08-12T03:31:06.750Z,100526.00
2022-08-12T03:37:11.394Z,100521.00
2022-08-12T03:43:39.776Z,100523.00
2022-08-12T03:50:00.806Z,100522.00
2022-08-12T03:56:21.435Z,100508.00
2022-08-12T04:02:25.112Z,100523.00
2022-08-12T04:08:27.696Z,100515.00
2022-08-12T04:14:30.501Z,100526.00
2022-08-12T04:20:32.952Z,100528.00
2022-08-12T04:26:36.213Z,100525.00
2022-08-12T04:32:43.701Z,100521.00
2022-08-12T04:38:46.781Z,100528.00
2022-08-12T04:44:48.980Z,100528.00
2022-08-12T04:50:51.280Z,100524.00
2022-08-12T04:57:03.120Z,100534.00
2022-08-12T05:03:07.797Z,100529.00
2022-08-12T05:09:11.199Z,100525.00
2022-08-12T05:15:27.794Z,100530.00
2022-08-12T05:21:32.006Z,100524.00
2022-08-12T05:27:34.934Z,100526.00
2022-08-12T05:33:41.287Z,100510.00
2022-08-12T05:39:43.834Z,100515.00
2022-08-12T05:45:46.518Z,100522.00
2022-08-12T05:51:48.803Z,100520.00
2022-08-12T05:57:55.681Z,100526.00
2022-08-12T06:03:58.111Z,100450.00
2022-08-12T06:10:01.221Z,100453.00
2022-08-12T06:16:03.729Z,100467.00
2022-08-12T06:22:06.022Z,100462.00
2022-08-12T06:28:17.810Z,100471.00
2022-08-12T06:35:24.995Z,100473.00
2022-08-12T06:41:02.886Z,100473.00
2022-08-12T06:47:05.391Z,100479.00
2022-08-12T06:53:09.692Z,100466.00
2022-08-12T06:59:15.175Z,100462.00
2022-08-12T07:05:24.793Z,100455.00
2022-08-12T07:11:29.465Z,100462.00
2022-08-12T07:17:38.191Z,100455.00
2022-08-12T07:23:42.105Z,100449.00
2022-08-12T07:29:59.492Z,100444.00
2022-08-12T07:36:12.418Z,100453.00
2022-08-12T07:42:14.728Z,100460.00
2022-08-12T07:48:17.561Z,100460.00
2022-08-12T07:54:20.059Z,100463.00
2022-08-12T08:00:22.558Z,100462.00
2022-08-12T08:06:25.080Z,100465.00
2022-08-12T08:12:47.340Z,100457.00
2022-08-12T08:18:50.173Z,100473.00
2022-08-12T08:24:57.928Z,100461.00
2022-08-12T08:31:00.130Z,100463.00
2022-08-12T08:37:07.705Z,100443.00
2022-08-12T08:43:13.118Z,100450.00
2022-08-12T08:49:16.399Z,100444.00
2022-08-12T08:55:24.074Z,100439.00
2022-08-12T09:01:37.425Z,100421.00
2022-08-12T09:07:58.990Z,100418.00
2022-08-12T09:14:18.739Z,100409.00
2022-08-12T09:20:27.586Z,100412.00
2022-08-12T09:26:32.113Z,100407.00
2022-08-12T09:33:05.330Z,100393.00
2022-08-12T09:40:06.479Z,100390.00
2022-08-12T09:46:19.336Z,100390.00
2022-08-12T09:51:55.822Z,100379.00
2022-08-12T09:58:44.953Z,100378.00
2022-08-12T10:04:20.990Z,100355.00
2022-08-12T10:10:25.065Z,100360.00
2022-08-12T10:16:39.142Z,100354.00
2022-08-12T10:22:41.880Z,100352.00
2022-08-12T10:30:02.127Z,100368.00
2022-08-12T10:35:38.177Z,100364.00
2022-08-12T10:42:00.193Z,100352.00
2022-08-12T10:48:19.474Z,100354.00
2022-08-12T10:54:27.963Z,100362.00
2022-08-12T11:00:35.692Z,100355.00
2022-08-12T11:07:08.935Z,100348.00
2022-08-12T11:13:16.560Z,100358.00
2022-08-12T11:19:22.340Z,100349.00
2022-08-12T11:25:24.903Z,100345.00
2022-08-12T11:32:01.696Z,100341.00
2022-08-12T11:38:05.603Z,100349.00
2022-08-12T11:44:35.530Z,100335.00
2022-08-12T11:50:34.670Z,100330.00
2022-08-12T11:56:59.031Z,100307.00
2022-08-12T12:03:02.899Z,100275.00
2022-08-12T12:09:08.051Z,100263.00
2022-08-12T12:15:12.391Z,100253.00
2022-08-12T12:21:17.031Z,100225.00
2022-08-12T12:27:20.728Z,100252.00
2022-08-12T12:33:57.380Z,100254.00
2022-08-12T12:40:00.838Z,100228.00
2022-08-12T12:46:03.055Z,100216.00
2022-08-12T12:52:19.783Z,100222.00
2022-08-12T12:58:23.363Z,100295.00
2022-08-12T13:04:25.998Z,100309.00
2022-08-12T13:10:36.512Z,100316.00
2022-08-12T13:16:43.771Z,100314.00
2022-08-12T13:22:47.663Z,100289.00
2022-08-12T13:28:55.690Z,100264.00
2022-08-12T13:35:04.261Z,100259.00
2022-08-12T13:41:39.567Z,100263.00
2022-08-12T13:47:58.265Z,100263.00
2022-08-12T13:54:09.786Z,100262.00
2022-08-12T14:00:14.085Z,100263.00
2022-08-12T14:06:17.141Z,100258.00
2022-08-12T14:12:24.940Z,100264.00
2022-08-12T14:18:30.504Z,100262.00
2022-08-12T14:24:40.505Z,100258.00
2022-08-12T14:30:59.849Z,100258.00
2022-08-12T14:37:07.239Z,100249.00
2022-08-12T14:43:15.508Z,100254.00
2022-08-12T14:50:37.502Z,100250.00
2022-08-12T15:02:10.396Z,100244.00
2022-08-12T15:08:22.391Z,100242.00
2022-08-12T15:14:30.283Z,100238.00
2022-08-12T15:20:38.129Z,100230.00
2022-08-12T15:26:42.601Z,100227.00
2022-08-12T15:32:48.591Z,100216.00
2022-08-12T15:38:51.266Z,100229.00
2022-08-12T15:44:53.769Z,100230.00
2022-08-12T15:50:57.843Z,100235.00
2022-08-12T15:57:00.181Z,100227.00
2022-08-12T16:03:14.211Z,100228.00
2022-08-12T16:09:31.797Z,100219.00
2022-08-12T16:16:01.581Z,100220.00
2022-08-12T16:22:05.222Z,100221.00
2022-08-12T16:28:09.767Z,100225.00
2022-08-12T16:34:25.859Z,100232.00
2022-08-12T16:40:46.301Z,100233.00
2022-08-12T16:46:55.539Z,100235.00
2022-08-12T16:53:03.340Z,100243.00
2022-08-12T16:59:15.809Z,100247.00
2022-08-12T17:05:19.870Z,100246.00
2022-08-12T17:11:24.969Z,100255.00
2022-08-12T17:17:39.343Z,100254.00
2022-08-12T17:23:53.374Z,100261.00
2022-08-12T17:30:03.227Z,100271.00
2022-08-12T17:36:07.578Z,100282.00
2022-08-12T17:42:32.931Z,100281.00
2022-08-12T17:48:38.650Z,100288.00
2022-08-12T17:54:41.447Z,100289.00
2022-08-12T18:00:47.015Z,100299.00
2022-08-12T18:06:50.597Z,100296.00
2022-08-12T18:12:53.867Z,100313.00
2022-08-12T18:18:59.875Z,100312.00
2022-08-12T18:26:13.062Z,100315.00
2022-08-12T18:31:44.386Z,100321.00
2022-08-12T18:37:57.572Z,100324.00
2022-08-12T18:44:09.729Z,100331.00
2022-08-12T18:50:15.544Z,100337.00
2022-08-12T18:56:33.224Z,100351.00
2022-08-12T19:02:40.127Z,100345.00
2022-08-12T19:08:47.065Z,100354.00
2022-08-12T19:14:52.057Z,100353.00
2022-08-12T19:21:16.027Z,100350.00
2022-08-12T19:27:19.516Z,100341.00
2022-08-12T19:33:24.102Z,100346.00
2022-08-12T19:39:30.005Z,100358.00
2022-08-12T19:45:43.619Z,100340.00
2022-08-12T19:51:51.356Z,100339.00
2022-08-12T19:58:01.427Z,100333.00
2022-08-12T20:04:06.306Z,100335.00
2022-08-12T20:10:16.515Z,100321.00
2022-08-12T20:16:50.817Z,100320.00
2022-08-12T20:22:48.944Z,100318.00
2022-08-12T20:28:51.632Z,100313.00
2022-08-12T20:34:54.642Z,100312.00
2022-08-12T20:40:56.892Z,100319.00
2022-08-12T20:47:18.748Z,100314.00
2022-08-12T20:53:27.752Z,100314.00
2022-08-12T20:59:47.961Z,100313.00
2022-08-12T21:06:13.409Z,100307.00
2022-08-12T21:12:28.412Z,100308.00
2022-08-12T21:18:36.023Z,100303.00
2022-08-12T21:24:46.810Z,100306.00
2022-08-12T21:31:11.611Z,100305.00
2022-08-12T21:37:26.409Z,100296.00
2022-08-12T21:43:44.756Z,100295.00
2022-08-12T21:49:55.631Z,100290.00
2022-08-12T21:56:06.154Z,100287.00
2022-08-12T22:02:30.959Z,100280.00
2022-08-12T22:08:33.698Z,100274.00
2022-08-12T22:14:35.902Z,100275.00
2022-08-12T22:20:40.561Z,100276.00
2022-08-12T22:26:47.529Z,100274.00
2022-08-12T22:32:51.285Z,100274.00
2022-08-12T22:38:58.976Z,100270.00
2022-08-12T22:45:23.165Z,100267.00
2022-08-12T22:51:25.916Z,100266.00
2022-08-12T22:57:49.049Z,100260.00
2022-08-12T23:03:54.012Z,100262.00
2022-08-12T23:09:56.809Z,100262.00
2022-08-12T23:16:01.194Z,100258.00
2022-08-12T23:22:36.398Z,100249.00
2022-08-12T23:28:53.255Z,100250.00
2022-08-12T23:34:56.265Z,100258.00
2022-08-12T23:41:00.038Z,100255.00
2022-08-12T23:47:10.543Z,100263.00
2022-08-12T23:53:22.770Z,100250.00
2022-08-12T23:59:29.984Z,100242.00
